Terminal Aerodrome Forecast
Issued by NWS

Home | Current Version | Previous Version | Text Only | Print | Product List | Glossary On
Versions: 1 2 3 4 5 6 7 8 9 10 11 12 13 14 15 16 17 18
000
FTUS43 KABR 010200 AAA
TAFATY
TAF AMD
KATY 010214Z 0102/0124 16006KT P6SM BKN035 OVC060
      TEMPO 0102/0103 -SN BKN025
     FM010430 26009KT P6SM SKC
     FM011900 29014G22KT P6SM BKN040=

USA.gov is the U.S. government's official web portal to all federal, state and local government web resources and services.